ユジノサハリンスク の空港の天気 - METARとTAF

ホムトヴォ空港(ユジノサハリンスク) ( UHSS / UUS ) - ロシア ユジノサハリンスク
飛行場実況気象(Metar)
観測時間04/25 18:00 VLAT (04/25 08:00 UTC)
風向・風速北 7m/s
視程10km以上
天気現象
全天の4割程度の雲 雲底高度 1220m
気温4℃
湿度65%
気圧1010hPa
METARUHSS 250800Z 35007MPS 9999 SCT040CB 04/M02 Q1010 R01/CLRD70 NOSIG RMK QFE757/1009
過去の天気等 Google飛行場航空写真 Wunderground天気予報

過去48時間のMETAR

飛行場予報(TAF)
発表時間: 4/25 15:00 VLAT (4/25 05:00 UTC)
予報対象時間: 25日16時 VLAT ~ 26日22時 VLAT
風向・風速北北西 5m/s 瞬間風速 10m/s
視程10km以上
全天の8割程度の積乱雲 雲底高度 910m
25日18時 VLAT ~ 25日20時 VLAT に徐々に
風向・風速北 3m/s
26日9時 VLAT ~ 26日11時 VLAT に徐々に
風向・風速北東 6m/s
TAF UHSS 250500Z 2506/2612 34005G10MPS 9999 BKN030CB
BECMG 2508/2510 36003MPS
BECMG 2523/2601 04006MPS